createdAt,value
2023-01-09T00:01:45.467Z,92.16
2023-01-09T00:04:13.689Z,91.81
2023-01-09T00:06:43.386Z,92.07
2023-01-09T00:09:11.287Z,92.42
2023-01-09T00:11:39.173Z,92.82
2023-01-09T00:14:07.122Z,93.04
2023-01-09T00:16:35.045Z,92.13
2023-01-09T00:19:03.016Z,92.40
2023-01-09T00:21:30.916Z,92.27
2023-01-09T00:23:59.107Z,92.11
2023-01-09T00:26:27.111Z,91.95
2023-01-09T00:28:55.038Z,92.04
2023-01-09T00:31:23.120Z,92.04
2023-01-09T00:34:05.529Z,92.78
2023-01-09T00:36:33.686Z,92.73
2023-01-09T00:39:01.946Z,92.66
2023-01-09T00:41:43.797Z,93.01
2023-01-09T00:44:44.547Z,92.48
2023-01-09T00:47:28.658Z,92.89
2023-01-09T00:50:03.133Z,93.19
2023-01-09T00:52:35.872Z,93.43
2023-01-09T00:55:05.212Z,93.50
2023-01-09T00:57:33.193Z,93.41
2023-01-09T01:00:01.893Z,93.59
2023-01-09T01:02:29.913Z,93.74
2023-01-09T01:05:16.641Z,93.88
2023-01-09T01:07:45.027Z,93.94
2023-01-09T01:10:21.287Z,93.71
2023-01-09T01:12:50.199Z,93.62
2023-01-09T01:15:19.331Z,93.71
2023-01-09T01:17:47.368Z,93.62
2023-01-09T01:20:18.697Z,93.59
2023-01-09T01:22:47.862Z,93.91
2023-01-09T01:25:17.497Z,94.07
2023-01-09T01:27:45.851Z,94.04
2023-01-09T01:30:16.410Z,94.02
2023-01-09T01:32:44.694Z,93.69
2023-01-09T01:35:13.435Z,93.87
2023-01-09T01:37:41.555Z,94.01
2023-01-09T01:40:11.399Z,94.22
2023-01-09T01:42:50.223Z,93.89
2023-01-09T01:45:22.360Z,94.34
2023-01-09T01:48:30.146Z,94.38
2023-01-09T01:51:06.670Z,94.27
2023-01-09T01:53:45.111Z,94.57
2023-01-09T01:56:25.161Z,94.46
2023-01-09T01:59:14.046Z,94.52
2023-01-09T02:01:45.779Z,94.23
2023-01-09T02:04:14.034Z,94.42
2023-01-09T02:06:42.351Z,94.30
2023-01-09T02:09:15.013Z,94.46
2023-01-09T02:11:48.141Z,94.77
2023-01-09T02:14:16.502Z,94.90
2023-01-09T02:17:40.561Z,95.01
2023-01-09T02:20:45.869Z,95.69
2023-01-09T02:23:53.831Z,95.65
2023-01-09T02:26:43.385Z,95.43
2023-01-09T02:30:18.018Z,95.65
2023-01-09T02:32:59.884Z,95.11
2023-01-09T02:35:42.696Z,94.84
2023-01-09T02:38:28.557Z,95.26
2023-01-09T02:41:19.179Z,95.55
2023-01-09T02:43:48.200Z,95.50
2023-01-09T02:46:21.719Z,95.65
2023-01-09T02:48:53.911Z,95.53
2023-01-09T02:51:36.815Z,95.33
2023-01-09T02:54:23.635Z,95.24
2023-01-09T02:57:32.471Z,95.37
2023-01-09T03:00:20.363Z,95.30
2023-01-09T03:03:34.217Z,95.31
2023-01-09T03:06:33.344Z,95.02
2023-01-09T03:09:16.379Z,95.10
2023-01-09T03:11:55.697Z,95.63
2023-01-09T03:14:26.070Z,96.01
2023-01-09T03:17:01.676Z,96.56
2023-01-09T03:19:32.337Z,96.37
2023-01-09T03:22:01.225Z,96.30
2023-01-09T03:24:29.362Z,96.61
2023-01-09T03:26:57.304Z,96.01
2023-01-09T03:29:25.234Z,96.21
2023-01-09T03:31:53.198Z,95.96
2023-01-09T03:34:21.110Z,95.95
2023-01-09T03:36:48.988Z,95.70
2023-01-09T03:39:16.981Z,96.40
2023-01-09T03:41:44.849Z,96.23
2023-01-09T03:44:12.701Z,96.06
2023-01-09T03:46:40.862Z,95.98
2023-01-09T03:49:08.762Z,96.06
2023-01-09T03:51:36.663Z,96.12
2023-01-09T03:54:04.720Z,96.28
2023-01-09T03:56:32.589Z,96.27
2023-01-09T03:59:00.508Z,96.56
2023-01-09T04:01:28.512Z,96.19
2023-01-09T04:03:56.584Z,96.04
2023-01-09T04:06:24.840Z,96.02
2023-01-09T04:08:52.769Z,95.87
2023-01-09T04:11:22.321Z,95.99
2023-01-09T04:13:50.268Z,96.14
2023-01-09T04:16:18.283Z,95.91
2023-01-09T04:18:46.292Z,96.02
2023-01-09T04:21:14.255Z,95.76
2023-01-09T04:23:42.127Z,95.69
2023-01-09T04:26:09.968Z,96.40
2023-01-09T04:28:37.877Z,96.38
2023-01-09T04:31:06.162Z,96.34
2023-01-09T04:33:34.733Z,96.29
2023-01-09T04:36:02.733Z,95.49
2023-01-09T04:38:30.693Z,96.29
2023-01-09T04:40:58.682Z,96.70
2023-01-09T04:43:26.573Z,96.66
2023-01-09T04:45:54.542Z,96.91
2023-01-09T04:48:22.562Z,96.46
2023-01-09T04:50:50.541Z,96.76
2023-01-09T04:53:18.459Z,97.05
2023-01-09T04:55:46.356Z,97.14
2023-01-09T04:58:14.236Z,97.35
2023-01-09T05:00:42.075Z,97.37
2023-01-09T05:03:10.368Z,97.11
2023-01-09T05:05:38.237Z,97.05
2023-01-09T05:08:06.551Z,97.37
2023-01-09T05:10:34.416Z,97.67
2023-01-09T05:13:02.279Z,97.59
2023-01-09T05:15:30.926Z,97.18
2023-01-09T05:17:58.795Z,97.43
2023-01-09T05:20:26.760Z,97.29
2023-01-09T05:22:54.719Z,97.36
2023-01-09T05:25:22.556Z,97.21
2023-01-09T05:27:50.427Z,97.29
2023-01-09T05:30:18.606Z,97.27
2023-01-09T05:32:46.598Z,96.54
2023-01-09T05:35:14.673Z,96.72
2023-01-09T05:37:42.556Z,96.49
2023-01-09T05:40:11.405Z,96.39
2023-01-09T05:42:39.665Z,96.20
2023-01-09T05:45:08.802Z,95.88
2023-01-09T05:47:37.095Z,95.81
2023-01-09T05:50:05.888Z,95.57
2023-01-09T05:52:33.853Z,96.12
2023-01-09T05:55:01.736Z,96.56
2023-01-09T05:57:29.679Z,96.15
2023-01-09T05:59:57.606Z,96.19
2023-01-09T06:02:25.783Z,96.18
2023-01-09T06:04:53.835Z,95.92
2023-01-09T06:07:23.473Z,95.96
2023-01-09T06:09:51.436Z,96.03
2023-01-09T06:12:19.505Z,96.20
2023-01-09T06:14:47.455Z,96.32
2023-01-09T06:17:15.325Z,96.33
2023-01-09T06:19:43.295Z,96.33
2023-01-09T06:22:11.187Z,95.93
2023-01-09T06:24:39.023Z,96.02
2023-01-09T06:27:07.059Z,95.87
2023-01-09T06:29:34.936Z,96.44
2023-01-09T06:32:02.901Z,97.05
2023-01-09T06:34:30.853Z,96.41
2023-01-09T06:36:58.854Z,96.75
2023-01-09T06:39:26.745Z,97.04
2023-01-09T06:41:54.723Z,97.00
2023-01-09T06:44:22.880Z,97.02
2023-01-09T06:46:50.868Z,96.69
2023-01-09T06:49:23.374Z,96.64
2023-01-09T06:51:52.011Z,96.29
2023-01-09T06:54:21.034Z,96.06
2023-01-09T06:56:48.916Z,95.74
2023-01-09T06:59:16.938Z,95.95
2023-01-09T07:01:44.898Z,95.96
2023-01-09T07:04:12.947Z,96.20
2023-01-09T07:06:40.891Z,96.31
2023-01-09T07:09:13.179Z,96.43
2023-01-09T07:11:41.365Z,96.34
2023-01-09T07:14:09.345Z,96.81
2023-01-09T07:16:37.395Z,97.20
2023-01-09T07:19:05.301Z,96.93
2023-01-09T07:21:33.170Z,97.18
2023-01-09T07:24:01.131Z,96.31
2023-01-09T07:26:29.021Z,96.54
2023-01-09T07:28:56.964Z,96.68
2023-01-09T07:31:25.123Z,96.87
2023-01-09T07:33:53.019Z,97.02
2023-01-09T07:36:20.896Z,97.16
2023-01-09T07:38:48.880Z,97.10
2023-01-09T07:41:16.768Z,96.89
2023-01-09T07:43:44.669Z,96.53
2023-01-09T07:46:12.656Z,96.37
2023-01-09T07:48:40.620Z,96.15
2023-01-09T07:51:10.317Z,95.93
2023-01-09T07:53:38.174Z,96.48
2023-01-09T07:56:06.462Z,95.92
2023-01-09T07:58:34.378Z,95.91
2023-01-09T08:01:02.308Z,96.38
2023-01-09T08:03:30.320Z,96.04
2023-01-09T08:05:58.187Z,95.80
2023-01-09T08:08:26.180Z,95.59
2023-01-09T08:10:54.075Z,95.14
2023-01-09T08:13:22.134Z,94.89
2023-01-09T08:15:50.121Z,94.57
2023-01-09T08:18:18.067Z,94.28
2023-01-09T08:20:49.232Z,94.95
2023-01-09T08:23:17.157Z,95.17
2023-01-09T08:25:45.036Z,94.45
2023-01-09T08:28:12.982Z,94.79
2023-01-09T08:30:41.203Z,94.67
2023-01-09T08:33:09.210Z,94.90
2023-01-09T08:35:38.116Z,95.56
2023-01-09T08:38:06.043Z,96.00
2023-01-09T08:40:33.900Z,95.22
2023-01-09T08:43:20.400Z,94.78
2023-01-09T08:46:20.209Z,95.75
2023-01-09T08:48:48.359Z,95.81
2023-01-09T08:51:16.281Z,95.34
2023-01-09T08:53:44.264Z,94.83
2023-01-09T08:56:12.288Z,95.25
2023-01-09T08:58:41.123Z,96.21
2023-01-09T09:01:09.129Z,95.87
2023-01-09T09:03:37.093Z,96.48
2023-01-09T09:06:09.518Z,96.85
2023-01-09T09:08:37.379Z,96.55
2023-01-09T09:11:05.453Z,96.86
2023-01-09T09:13:33.653Z,96.93
2023-01-09T09:16:01.710Z,97.58
2023-01-09T09:18:29.672Z,97.31
2023-01-09T09:20:57.556Z,97.08
2023-01-09T09:23:25.534Z,97.18
2023-01-09T09:25:53.436Z,96.56
2023-01-09T09:28:21.352Z,97.01
2023-01-09T09:30:49.309Z,96.75
2023-01-09T09:33:17.184Z,95.94
2023-01-09T09:35:45.485Z,96.04
2023-01-09T09:38:13.633Z,96.26
2023-01-09T09:41:05.648Z,95.75
2023-01-09T09:44:26.584Z,96.13
2023-01-09T09:47:28.683Z,96.04
2023-01-09T09:50:23.764Z,95.81
2023-01-09T09:53:21.509Z,96.26
2023-01-09T09:55:51.020Z,96.00
2023-01-09T09:58:29.220Z,96.68
2023-01-09T10:00:59.643Z,96.53
2023-01-09T10:03:47.753Z,96.50
2023-01-09T10:06:31.607Z,96.68
2023-01-09T10:09:21.719Z,96.69
2023-01-09T10:12:25.608Z,97.06
2023-01-09T10:14:59.971Z,97.17
2023-01-09T10:18:18.134Z,96.41
2023-01-09T10:21:16.829Z,96.52
2023-01-09T10:24:04.290Z,96.25
2023-01-09T10:26:50.650Z,96.43
2023-01-09T10:29:31.551Z,96.33
2023-01-09T10:32:28.681Z,95.96
2023-01-09T10:35:12.850Z,96.22
2023-01-09T10:37:47.124Z,97.36
2023-01-09T10:40:25.117Z,97.00
2023-01-09T10:43:19.179Z,97.26
2023-01-09T10:45:54.232Z,96.35
2023-01-09T10:48:37.189Z,96.84
2023-01-09T10:51:18.068Z,97.02
2023-01-09T10:53:51.773Z,96.84
2023-01-09T10:56:33.874Z,96.65
2023-01-09T10:59:01.785Z,97.27
2023-01-09T11:01:38.192Z,97.68
2023-01-09T11:04:29.971Z,96.82
2023-01-09T11:07:07.225Z,96.88
2023-01-09T11:09:58.814Z,97.85
2023-01-09T11:12:31.330Z,96.17
2023-01-09T11:15:20.835Z,96.66
2023-01-09T11:17:51.809Z,96.93
2023-01-09T11:20:29.766Z,97.84
2023-01-09T11:22:58.893Z,97.76
2023-01-09T11:25:28.934Z,96.68
2023-01-09T11:28:06.610Z,97.51
2023-01-09T11:30:52.783Z,96.78
2023-01-09T11:33:26.352Z,96.20
2023-01-09T11:36:03.144Z,96.61
2023-01-09T11:38:44.605Z,97.38
2023-01-09T11:41:19.709Z,97.30
2023-01-09T11:43:52.419Z,97.27
2023-01-09T11:46:37.452Z,97.03
2023-01-09T11:49:12.899Z,96.61
2023-01-09T11:51:42.874Z,97.02
2023-01-09T11:54:35.651Z,97.49
2023-01-09T11:57:03.866Z,96.54
2023-01-09T11:59:32.081Z,96.19
2023-01-09T12:02:33.904Z,96.77
2023-01-09T12:05:12.155Z,96.93
2023-01-09T12:07:59.033Z,97.57
2023-01-09T12:11:07.623Z,97.63
2023-01-09T12:14:01.199Z,96.55
2023-01-09T12:16:52.178Z,97.58
2023-01-09T12:20:11.327Z,97.79
2023-01-09T12:23:24.896Z,96.60
2023-01-09T12:26:19.221Z,98.00
2023-01-09T12:29:27.271Z,97.72
2023-01-09T12:32:20.807Z,96.57
2023-01-09T12:35:19.457Z,97.11
2023-01-09T12:37:59.713Z,97.07
2023-01-09T12:40:59.897Z,97.75
2023-01-09T12:44:34.713Z,97.38
2023-01-09T12:47:29.003Z,97.52
2023-01-09T12:50:04.593Z,98.11
2023-01-09T12:52:40.529Z,97.11
2023-01-09T12:55:22.205Z,97.82
2023-01-09T12:57:54.826Z,97.93
2023-01-09T13:00:29.981Z,98.00
2023-01-09T13:03:21.589Z,97.84
2023-01-09T13:05:53.367Z,97.48
2023-01-09T13:08:33.093Z,97.76
2023-01-09T13:11:20.227Z,97.79
2023-01-09T13:14:19.184Z,97.37
2023-01-09T13:16:51.096Z,97.25
2023-01-09T13:19:29.839Z,97.13
2023-01-09T13:21:58.852Z,97.19
2023-01-09T13:24:58.122Z,96.79
2023-01-09T13:27:31.117Z,96.85
2023-01-09T13:30:40.619Z,96.82
2023-01-09T13:33:25.377Z,96.42
2023-01-09T13:35:57.515Z,96.68
2023-01-09T13:38:28.793Z,96.82
2023-01-09T13:41:33.825Z,96.25
2023-01-09T13:44:20.689Z,96.65
2023-01-09T13:46:53.128Z,96.56
2023-01-09T13:49:36.711Z,96.63
2023-01-09T13:52:26.417Z,96.90
2023-01-09T13:55:02.845Z,96.57
2023-01-09T13:57:38.336Z,97.07
2023-01-09T14:00:12.453Z,96.76
2023-01-09T14:02:41.212Z,96.89
2023-01-09T14:05:14.908Z,97.17
2023-01-09T14:07:47.284Z,96.94
2023-01-09T14:10:24.757Z,97.19
2023-01-09T14:12:56.719Z,96.99
2023-01-09T14:15:35.794Z,97.01
2023-01-09T14:18:26.335Z,97.14
2023-01-09T14:21:00.489Z,97.28
2023-01-09T14:23:52.821Z,97.07
2023-01-09T14:26:46.078Z,97.02
2023-01-09T14:29:29.467Z,97.22
2023-01-09T14:32:22.803Z,97.23
2023-01-09T14:35:13.519Z,96.98
2023-01-09T14:37:42.708Z,97.21
2023-01-09T14:40:23.841Z,97.14
2023-01-09T14:42:59.488Z,97.61
2023-01-09T14:45:27.537Z,97.21
2023-01-09T14:48:04.072Z,97.67
2023-01-09T14:50:55.609Z,97.87
2023-01-09T14:53:28.577Z,97.93
2023-01-09T14:55:58.303Z,98.03
2023-01-09T14:58:34.017Z,97.65
2023-01-09T15:01:15.951Z,97.54
2023-01-09T15:04:27.159Z,98.03
2023-01-09T15:06:55.145Z,97.90
2023-01-09T15:09:47.453Z,97.92
2023-01-09T15:12:23.477Z,97.85
2023-01-09T15:14:55.236Z,97.83
2023-01-09T15:17:34.966Z,98.09
2023-01-09T15:20:06.648Z,98.01
2023-01-09T15:22:37.294Z,98.17
2023-01-09T15:25:33.850Z,98.08
2023-01-09T15:28:25.904Z,98.19
2023-01-09T15:31:03.176Z,98.48
2023-01-09T15:33:32.756Z,98.57
2023-01-09T15:36:06.242Z,98.29
2023-01-09T15:38:36.002Z,98.17
2023-01-09T15:41:10.954Z,98.26
2023-01-09T15:43:43.091Z,98.21
2023-01-09T15:46:12.219Z,98.29
2023-01-09T15:48:40.547Z,98.05
2023-01-09T15:51:14.230Z,98.04
2023-01-09T15:53:45.230Z,98.11
2023-01-09T15:56:13.296Z,98.04
2023-01-09T15:58:47.035Z,98.10
2023-01-09T16:01:38.308Z,98.25
2023-01-09T16:04:16.344Z,98.29
2023-01-09T16:06:52.580Z,98.33
2023-01-09T16:09:32.154Z,98.46
2023-01-09T16:12:03.395Z,98.48
2023-01-09T16:14:41.872Z,98.76
2023-01-09T16:17:17.990Z,98.35
2023-01-09T16:20:13.539Z,98.54
2023-01-09T16:22:55.432Z,98.61
2023-01-09T16:25:34.477Z,98.79
2023-01-09T16:28:27.031Z,98.62
2023-01-09T16:31:08.163Z,98.74
2023-01-09T16:33:43.740Z,98.61
2023-01-09T16:36:13.645Z,98.77
2023-01-09T16:38:43.111Z,98.70
2023-01-09T16:41:40.159Z,98.82
2023-01-09T16:44:10.625Z,98.99
2023-01-09T16:46:43.648Z,98.70
2023-01-09T16:49:27.323Z,98.76
2023-01-09T16:51:57.043Z,98.90
2023-01-09T16:54:24.956Z,98.99
2023-01-09T16:56:54.501Z,98.92
2023-01-09T16:59:26.956Z,99.01
2023-01-09T17:01:55.583Z,98.62
2023-01-09T17:04:26.306Z,98.80
2023-01-09T17:06:54.236Z,98.68
2023-01-09T17:09:27.636Z,98.90
2023-01-09T17:11:55.678Z,98.52
2023-01-09T17:14:24.522Z,98.78
2023-01-09T17:16:52.549Z,98.57
2023-01-09T17:19:20.575Z,98.62
2023-01-09T17:21:49.062Z,98.66
2023-01-09T17:24:35.569Z,98.52
2023-01-09T17:27:22.357Z,98.77
2023-01-09T17:29:50.421Z,98.62
2023-01-09T17:32:18.622Z,98.61
2023-01-09T17:34:46.628Z,98.79
2023-01-09T17:37:17.483Z,98.69
2023-01-09T17:39:46.241Z,98.93
2023-01-09T17:42:14.272Z,98.87
2023-01-09T17:44:42.304Z,99.27
2023-01-09T17:47:15.748Z,99.14
2023-01-09T17:49:43.845Z,99.15
2023-01-09T17:52:11.886Z,99.04
2023-01-09T17:54:40.505Z,99.13
2023-01-09T17:57:16.288Z,98.72
2023-01-09T17:59:44.953Z,99.40
2023-01-09T18:02:18.696Z,99.22
2023-01-09T18:04:46.748Z,99.52
2023-01-09T18:07:18.496Z,99.05
2023-01-09T18:09:46.405Z,99.10
2023-01-09T18:12:14.476Z,99.13
2023-01-09T18:14:42.634Z,99.07
2023-01-09T18:17:13.021Z,99.01
2023-01-09T18:19:41.027Z,99.31
2023-01-09T18:22:09.008Z,99.25
2023-01-09T18:24:36.965Z,99.27
2023-01-09T18:27:04.833Z,99.48
2023-01-09T18:29:32.915Z,99.60
2023-01-09T18:32:00.923Z,99.72
2023-01-09T18:34:28.984Z,99.69
2023-01-09T18:36:57.023Z,99.72
2023-01-09T18:39:25.869Z,99.54
2023-01-09T18:41:53.757Z,99.81
2023-01-09T18:44:22.566Z,99.92
2023-01-09T18:46:50.515Z,99.73
2023-01-09T18:49:18.587Z,99.85
2023-01-09T18:51:46.555Z,99.83
2023-01-09T18:54:14.426Z,99.76
2023-01-09T18:56:42.411Z,99.55
2023-01-09T18:59:10.572Z,99.47
2023-01-09T19:01:38.628Z,99.92
2023-01-09T19:04:06.685Z,99.43
2023-01-09T19:06:34.764Z,99.61
2023-01-09T19:09:02.800Z,99.79
2023-01-09T19:11:30.663Z,99.40
2023-01-09T19:13:58.832Z,99.49
2023-01-09T19:16:26.784Z,99.40
2023-01-09T19:18:54.826Z,99.39
2023-01-09T19:21:23.745Z,99.38
2023-01-09T19:23:51.644Z,99.16
2023-01-09T19:26:26.224Z,99.52
2023-01-09T19:28:57.512Z,99.32
2023-01-09T19:31:28.919Z,99.66
2023-01-09T19:33:58.682Z,99.21
2023-01-09T19:36:27.874Z,99.10
2023-01-09T19:39:01.192Z,99.15
2023-01-09T19:41:29.581Z,98.93
2023-01-09T19:43:59.604Z,99.16
2023-01-09T19:46:28.427Z,99.04
2023-01-09T19:48:58.821Z,99.02
2023-01-09T19:51:27.127Z,99.14
2023-01-09T19:56:35.510Z,99.14
2023-01-09T19:59:05.611Z,98.75
2023-01-09T20:01:38.953Z,99.02
2023-01-09T20:04:13.801Z,99.35
2023-01-09T20:06:47.753Z,99.13
2023-01-09T20:09:27.161Z,99.07
2023-01-09T20:11:55.491Z,99.04
2023-01-09T20:14:23.681Z,99.17
2023-01-09T20:16:54.150Z,99.61
2023-01-09T20:19:22.300Z,99.02
2023-01-09T20:21:50.267Z,98.87
2023-01-09T20:24:18.228Z,99.24
2023-01-09T20:26:46.310Z,99.29
2023-01-09T20:29:14.510Z,99.32
2023-01-09T20:31:43.095Z,99.31
2023-01-09T20:34:15.290Z,99.36
2023-01-09T20:36:43.585Z,99.47
2023-01-09T20:39:12.269Z,99.53
2023-01-09T20:41:40.229Z,99.61
2023-01-09T20:44:13.684Z,99.71
2023-01-09T20:46:47.302Z,99.83
2023-01-09T20:49:18.263Z,99.95
2023-01-09T20:51:51.785Z,99.95
2023-01-09T20:54:22.210Z,99.88
2023-01-09T20:56:50.513Z,99.96
2023-01-09T20:59:22.684Z,100.00
2023-01-09T21:01:51.177Z,100.00
2023-01-09T21:04:19.469Z,100.00
2023-01-09T21:06:49.782Z,100.00
2023-01-09T21:09:18.515Z,99.99
2023-01-09T21:11:46.448Z,99.99
2023-01-09T21:14:14.594Z,100.00
2023-01-09T21:16:45.498Z,99.90
2023-01-09T21:19:19.487Z,100.00
2023-01-09T21:21:47.338Z,100.00
2023-01-09T21:24:15.255Z,99.99
2023-01-09T21:26:43.147Z,99.94
2023-01-09T21:29:12.722Z,99.81
2023-01-09T21:31:40.659Z,100.00
2023-01-09T21:34:14.624Z,100.00
2023-01-09T21:36:44.887Z,99.84
2023-01-09T21:39:12.816Z,99.92
2023-01-09T21:41:59.474Z,99.53
2023-01-09T21:44:46.248Z,99.88
2023-01-09T21:47:14.131Z,99.88
2023-01-09T21:49:44.133Z,99.98
2023-01-09T21:52:13.885Z,99.89
2023-01-09T21:54:41.893Z,99.93
2023-01-09T21:57:10.514Z,99.73
2023-01-09T21:59:38.676Z,99.91
2023-01-09T22:02:06.612Z,99.61
2023-01-09T22:04:34.460Z,99.61
2023-01-09T22:07:02.422Z,99.36
2023-01-09T22:09:30.448Z,99.42
2023-01-09T22:11:58.384Z,99.86
2023-01-09T22:14:26.270Z,99.99
2023-01-09T22:16:54.211Z,100.00
2023-01-09T22:19:22.279Z,99.92
2023-01-09T22:21:50.252Z,99.95
2023-01-09T22:24:19.073Z,100.00
2023-01-09T22:26:47.763Z,99.74
2023-01-09T22:29:16.315Z,99.70
2023-01-09T22:31:44.360Z,99.84
2023-01-09T22:34:17.965Z,99.60
2023-01-09T22:36:47.235Z,99.86
2023-01-09T22:39:18.683Z,99.75
2023-01-09T22:41:52.355Z,99.65
2023-01-09T22:44:20.547Z,99.02
2023-01-09T22:46:48.484Z,99.24
2023-01-09T22:49:16.515Z,99.41
2023-01-09T22:51:44.473Z,99.30
2023-01-09T22:54:12.369Z,99.29
2023-01-09T22:56:40.246Z,99.11
2023-01-09T22:59:08.173Z,99.53
2023-01-09T23:01:36.079Z,99.31
2023-01-09T23:04:03.940Z,99.67
2023-01-09T23:06:31.972Z,99.86
2023-01-09T23:08:59.921Z,100.00
2023-01-09T23:11:50.415Z,99.82
2023-01-09T23:14:18.441Z,99.96
2023-01-09T23:16:46.417Z,100.00
2023-01-09T23:19:15.623Z,99.98
2023-01-09T23:21:45.214Z,99.91
2023-01-09T23:24:16.056Z,99.99
2023-01-09T23:26:44.566Z,99.92
2023-01-09T23:29:13.537Z,99.94
2023-01-09T23:31:41.711Z,99.98
2023-01-09T23:34:14.099Z,99.91
2023-01-09T23:36:42.105Z,99.97
2023-01-09T23:39:10.931Z,99.96
2023-01-09T23:42:01.012Z,99.73
2023-01-09T23:44:29.339Z,100.00
2023-01-09T23:46:57.628Z,99.76
2023-01-09T23:49:25.565Z,99.80
2023-01-09T23:51:53.607Z,99.69
2023-01-09T23:54:21.520Z,99.50
2023-01-09T23:56:49.417Z,99.60
2023-01-09T23:59:18.038Z,99.56
